x

Western Gulf Of Alaska - 175nm Se Of Kodiak, Ak (46001) Wave Buoy

7:50am - Tue 22nd Aug 2017 All times are AKDT. -8 hours from GMT.

  • Sig Wave height 6.6ft
  • Peak Period 10s
  • Average Period 6s
  • Wind
    20mph, 22mph gusts
  • Sea Temp 57°f
  • Air Temp 57°f
  • Sea Pressure 999.9mb
  • Western Gulf Of Alaska  - 175nm Se Of Kodiak, Ak
  • Western Gulf Of Alaska  - 175nm Se Of Kodiak, Ak

More Historic Weather Station data

Upgrade to MSW Pro to gain access to the past 30 days of data for over 8000 Wavebouys and Weather Stations around the globe.

Join

Comparision Forecast

View Surf forecast
   
Tue 08/22 7:50am 6.5ft 10s 6s 20 22 mph 999.9mb 57f 57f
6:50am 6ft 7s 6s 20 25 mph 999.6mb 57f 56f
5:50am 6.5ft 9s 6s 18 22 mph 1000.1mb 57f 54f
4:50am 7ft 7s 7s 13 16 mph 1000.3mb 57f 55f
3:50am 6.5ft 8s 7s 11 16 mph 1000.4mb 57f 55f
2:50am 6ft 8s 7s 7 9 mph 1000.2mb 57f 54f
1:50am 6.5ft 8s 7s 4 7 mph 1000.4mb 57f 55f
12:50am 7ft 7s 7s 9 11 mph 1000.3mb 57f 55f
Mon 08/21 11:50pm 7ft 8s 6s 4 7 mph 999.8mb 57f 55f
10:50pm 7ft 8s 7s 2 4 mph 999.4mb 57f 54f
9:50pm 7ft 8s 6s 7 9 mph 999.4mb 57f 54f
8:50pm 6.5ft 8s 6s 7 7 mph 998.8mb 57f 54f
7:50pm 7ft 7s 6s 7 11 mph 998.9mb 57f 54f
6:50pm 6.5ft 7s 6s 9 11 mph 998.7mb 57f 55f
5:50pm 6.5ft 7s 6s 11 16 mph 998.6mb 58f 55f
4:50pm 7ft 8s 6s 11 16 mph 998.5mb 58f 55f
3:50pm 6ft 8s 6s 13 18 mph 998.5mb 57f 55f
2:50pm 6.5ft 8s 5s 16 18 mph 998.5mb 57f 55f
1:50pm 6ft 8s 5s 18 20 mph 998.5mb 57f 55f
12:50pm 6.5ft 8s 6s 18 20 mph 998.3mb 57f 55f
11:50am 6.5ft 8s 5s 18 20 mph 998.3mb 57f 55f
10:50am 6ft 7s 5s 16 20 mph 998.3mb 57f 55f
9:50am 6.5ft 7s 5s 16 20 mph 998.3mb 57f 55f
8:50am 6.5ft 8s 5s 18 20 mph 998.2mb 57f 55f
7:50am 6.5ft 8s 5s 18 20 mph 998.2mb 57f 55f
6:50am 6.5ft 8s 6s 18 20 mph 998mb 57f 55f
5:50am 7ft 8s 6s 18 22 mph 997.7mb 57f 55f
4:50am 7ft 9s 5s 20 22 mph 997.2mb 57f 55f
3:50am 6.5ft 6s 5s 22 25 mph 996.8mb 57f 55f
2:50am 6ft 6s 5s 22 25 mph 996.6mb 57f 55f
1:50am 6ft 9s 5s 20 25 mph 996.5mb 57f 55f
12:50am 5ft 9s 5s 18 22 mph 996.3mb 57f 55f
Sun 08/20 11:50pm 5ft 8s 5s 18 20 mph 995.9mb 57f 56f
10:50pm 5ft 8s 5s 18 20 mph 995.4mb 57f 56f
9:50pm 5ft 9s 5s 13 18 mph 995.2mb 57f 56f
8:50pm 5.5ft 6s 6s 11 13 mph 994.9mb 57f 56f
7:50pm 5ft 9s 5s 11 13 mph 995.1mb 57f 57f
6:50pm 5ft 6s 6s 11 13 mph 994.9mb 57f 56f
5:50pm 5.5ft 6s 6s 11 13 mph 995.3mb 57f 56f
4:50pm 4.5ft 6s 5s 13 16 mph 995.3mb 57f 56f
3:50pm 4.5ft 6s 5s 13 16 mph 995.7mb 57f 56f
2:50pm 5ft 5s 5s 13 16 mph 996.1mb 57f 56f
1:50pm 5ft 6s 5s 13 16 mph 996.6mb 57f 56f
12:50pm 5ft 6s 5s 13 18 mph 997mb 57f 56f
11:50am 5.5ft 6s 5s 16 20 mph 997.5mb 57f 56f
10:50am 5.5ft 5s 4s 18 22 mph 998.1mb 57f 56f
9:50am 5ft 5s 4s 22 27 mph 999.1mb 57f 55f
8:50am 5ft 5s 4s 20 22 mph 1000.5mb 57f 55f
7:50am 4.5ft 5s 4s 18 22 mph 1001.4mb 57f 55f
6:50am 4.5ft 15s 5s 20 22 mph 1002.4mb 57f 54f
5:50am 4ft 15s 5s 20 22 mph 1003.6mb 57f 53f
4:50am 3.5ft 7s 5s 20 22 mph 1004.3mb 57f 55f
3:50am 3.5ft 16s 6s 13 13 mph 1005.3mb 57f 54f
2:50am 4.5ft 8s 6s 9 11 mph 1006.7mb 57f 53f
1:50am 4.5ft 15s 6s 11 13 mph 1007.1mb 57f 54f
12:50am 4.5ft 7s 6s 2 7 mph 1007.3mb 57f 54f
Sat 08/19 11:50pm 4.5ft 16s 5s 9 11 mph 1008mb 57f 53f
10:50pm 5ft 8s 5s 11 13 mph 1008.3mb 57f 54f
9:50pm 5ft 8s 6s 4 7 mph 1008.3mb 57f 56f
8:50pm 5ft 9s 6s 7 7 mph 1008.5mb 57f 56f
7:50pm 6ft 8s 6s 4 7 mph 1008.9mb 57f 55f
6:50pm 6ft 8s 6s 4 7 mph 1009.2mb 57f 55f
5:50pm 6ft 8s 6s 9 11 mph 1009.2mb 57f 55f
4:50pm 6ft 7s 6s 13 16 mph 1009.3mb 57f 56f
3:50pm 6ft 8s 6s 16 18 mph 1009.3mb 57f 55f
2:50pm 6ft 8s 6s 13 16 mph 1009.3mb 57f 54f
1:50pm 6ft 8s 6s 13 16 mph 1009.3mb 57f 55f
12:50pm 6ft 8s 6s 16 18 mph 1009.4mb 57f 55f
11:50am 6ft 8s 6s 16 18 mph 1009.4mb 57f 55f
10:50am 6ft 8s 6s 16 18 mph 1009.4mb 57f 55f
9:50am 7ft 9s 6s 16 18 mph 1009.2mb 57f 56f
8:50am 7ft 9s 6s 13 18 mph 1009.1mb 57f 56f
7:50am 7ft 8s 6s 13 16 mph 1009.2mb 57f 56f
6:50am 8ft 7s 6s 16 18 mph 1009.1mb 57f 56f
5:50am 7.5ft 10s 6s 13 18 mph 1009.1mb 57f 56f
4:50am 8ft 8s 6s 16 18 mph 1009mb 57f 56f
3:50am 7.5ft 8s 6s 16 18 mph 1009.1mb 57f 56f
2:50am 7.5ft 9s 6s 18 22 mph 1009mb 57f 56f
1:50am 7ft 9s 6s 18 20 mph 1008.9mb 57f 56f
12:50am 7ft 10s 6s 20 22 mph 1008.9mb 57f 56f
Fri 08/18 11:50pm 7ft 9s 6s 20 22 mph 1008.8mb 57f 56f
10:50pm 7ft 10s 6s 20 25 mph 1008.8mb 57f 55f
9:50pm 7ft 9s 6s 20 22 mph 1008.8mb 57f 56f
8:50pm 7ft 9s 6s 20 22 mph 1009mb 57f 55f